Time;durP1;ratioP1;P1;durP2;ratioP2;P2;SDS_P1;SDS_P2;PMS_P1;PMS_P2;Temp;Humidity;BMP_temperature;BMP_pressure;BME280_temperature;BME280_humidity;BME280_pressure;Samples;Min_cycle;Max_cycle;Signal;HPM_P1;HPM_P2
2022/12/16 00:01:05;;;;;;;5.60;5.30;;;0.60;99.90;;;;;;5083633;28;20225;-69
2022/12/16 00:03:32;;;;;;;5.60;5.30;;;0.60;99.90;;;;;;5081249;28;20300;-69
2022/12/16 00:06:02;;;;;;;6.32;5.72;;;0.50;99.90;;;;;;5080397;28;20221;-72
2022/12/16 00:08:33;;;;;;;6.13;5.72;;;0.50;99.90;;;;;;5082949;28;20582;-70
2022/12/16 00:11:01;;;;;;;5.32;5.03;;;0.50;99.90;;;;;;5077113;28;20230;-69
2022/12/16 00:13:29;;;;;;;5.57;5.28;;;0.50;99.90;;;;;;5082641;28;20193;-69
2022/12/16 00:15:56;;;;;;;5.75;5.43;;;0.50;99.90;;;;;;5085126;28;20224;-70
2022/12/16 00:18:23;;;;;;;6.07;5.63;;;0.50;99.90;;;;;;5085509;28;20206;-69
2022/12/16 00:20:52;;;;;;;5.88;5.47;;;0.40;99.90;;;;;;5080253;28;20601;-70
2022/12/16 00:23:20;;;;;;;6.35;5.85;;;0.40;99.90;;;;;;5081506;28;20198;-69
2022/12/16 00:25:48;;;;;;;5.93;5.53;;;0.30;99.90;;;;;;5082752;28;20221;-70
2022/12/16 00:28:17;;;;;;;6.25;5.85;;;0.30;99.90;;;;;;5082582;28;20201;-69
2022/12/16 00:30:45;;;;;;;5.20;4.90;;;0.30;99.90;;;;;;5082309;28;20230;-68
2022/12/16 00:33:12;;;;;;;6.28;5.88;;;0.30;99.90;;;;;;5084032;28;20201;-69
2022/12/16 00:35:39;;;;;;;6.68;6.28;;;0.40;99.90;;;;;;5082457;28;20735;-69
2022/12/16 00:38:06;;;;;;;5.40;5.10;;;0.40;99.90;;;;;;5078972;28;20236;-69
2022/12/16 00:40:33;;;;;;;5.82;5.45;;;0.50;99.90;;;;;;5081826;28;20239;-70
2022/12/16 00:43:02;;;;;;;6.82;6.40;;;0.50;99.90;;;;;;5084190;28;20198;-70
2022/12/16 00:45:30;;;;;;;6.28;5.88;;;0.50;99.90;;;;;;5081081;28;20200;-71
2022/12/16 00:47:57;;;;;;;6.43;6.00;;;0.50;99.90;;;;;;5084338;28;20198;-69
2022/12/16 00:50:25;;;;;;;5.55;5.25;;;0.50;99.90;;;;;;5082791;28;20301;-69
2022/12/16 00:52:52;;;;;;;6.57;6.18;;;0.60;99.90;;;;;;5085079;28;20202;-70
2022/12/16 00:55:19;;;;;;;6.10;5.80;;;0.60;99.90;;;;;;5082491;28;20194;-69
2022/12/16 00:57:47;;;;;;;6.30;5.90;;;0.60;99.90;;;;;;5079256;28;20310;-70
2022/12/16 01:00:17;;;;;;;7.35;6.85;;;0.60;99.90;;;;;;5081829;28;22544;-70
2022/12/16 01:02:46;;;;;;;6.57;6.07;;;0.60;99.90;;;;;;5084280;28;20217;-69
2022/12/16 01:05:16;;;;;;;6.68;6.28;;;0.60;99.90;;;;;;5081684;28;20194;-69
2022/12/16 01:07:44;;;;;;;6.30;5.90;;;0.60;99.90;;;;;;5081584;28;20213;-71
2022/12/16 01:10:12;;;;;;;6.40;5.90;;;0.60;99.90;;;;;;5080640;28;20232;-69
2022/12/16 01:12:39;;;;;;;6.50;6.00;;;0.60;99.90;;;;;;5080770;28;20217;-70
2022/12/16 01:15:08;;;;;;;6.53;6.13;;;0.60;99.90;;;;;;5078950;28;20190;-69
2022/12/16 01:17:37;;;;;;;6.25;5.82;;;0.60;99.90;;;;;;5080885;28;20904;-70
2022/12/16 01:20:05;;;;;;;6.47;6.07;;;0.60;99.90;;;;;;5083484;28;20237;-69
2022/12/16 01:22:33;;;;;;;6.22;5.82;;;0.60;99.90;;;;;;5079723;28;20221;-69
2022/12/16 01:25:01;;;;;;;5.53;5.22;;;0.60;99.90;;;;;;5074051;28;20304;-68
2022/12/16 01:27:29;;;;;;;6.30;5.90;;;0.60;99.90;;;;;;5083993;28;20221;-69
2022/12/16 01:29:56;;;;;;;6.57;6.18;;;0.60;99.90;;;;;;5082750;28;20214;-70
2022/12/16 01:32:23;;;;;;;5.95;5.65;;;0.60;99.90;;;;;;5079051;28;20209;-69
2022/12/16 01:34:52;;;;;;;6.55;6.15;;;0.60;99.90;;;;;;5079124;28;20586;-69
2022/12/16 01:37:20;;;;;;;6.35;5.95;;;0.60;99.90;;;;;;5083650;28;20229;-69
2022/12/16 01:39:47;;;;;;;6.07;5.72;;;0.60;99.90;;;;;;5081626;28;20271;-69
2022/12/16 01:42:17;;;;;;;5.90;5.50;;;0.60;99.90;;;;;;5081147;28;20798;-69
2022/12/16 01:44:47;;;;;;;6.18;5.78;;;0.60;99.90;;;;;;5073338;28;20193;-69
2022/12/16 01:47:17;;;;;;;5.85;5.47;;;0.70;99.90;;;;;;5076760;28;20757;-69
2022/12/16 01:49:47;;;;;;;5.72;5.43;;;0.70;99.90;;;;;;5081206;28;20221;-69
2022/12/16 01:52:21;;;;;;;6.80;6.20;;;0.70;99.90;;;;;;5079271;28;20225;-69
2022/12/16 01:54:52;;;;;;;6.70;6.30;;;0.70;99.90;;;;;;5077657;28;20205;-69
2022/12/16 01:57:25;;;;;;;6.78;6.38;;;0.70;99.90;;;;;;5079991;28;20229;-70
2022/12/16 01:59:54;;;;;;;7.40;6.90;;;0.70;99.90;;;;;;5080585;28;20952;-69
2022/12/16 02:02:22;;;;;;;6.15;5.75;;;0.70;99.90;;;;;;5081614;28;20296;-70
2022/12/16 02:07:32;;;;;;;6.40;6.00;;;0.70;99.90;;;;;;5075724;28;20687;-69
2022/12/16 02:10:00;;;;;;;6.53;6.13;;;0.70;99.90;;;;;;5082115;28;20214;-69
2022/12/16 02:12:34;;;;;;;7.32;6.82;;;0.70;99.90;;;;;;5086986;28;20222;-68
2022/12/16 02:15:11;;;;;;;6.47;6.07;;;0.70;99.90;;;;;;5085218;28;20193;-71
2022/12/16 02:17:47;;;;;;;6.45;6.05;;;0.70;99.90;;;;;;5086470;28;20738;-69
2022/12/16 02:20:40;;;;;;;6.03;5.63;;;0.70;99.90;;;;;;5082770;28;20223;-69
2022/12/16 02:23:49;;;;;;;6.32;5.82;;;0.80;99.90;;;;;;5086433;28;20272;-69
2022/12/16 02:26:55;;;;;;;5.88;5.47;;;0.80;99.90;;;;;;5037320;28;20299;-73
2022/12/16 02:30:06;;;;;;;5.85;5.55;;;0.90;99.90;;;;;;5042242;28;20602;-70
2022/12/16 02:32:49;;;;;;;6.47;6.03;;;0.90;99.90;;;;;;5044373;28;20224;-69
2022/12/16 02:35:25;;;;;;;6.25;5.80;;;0.90;99.90;;;;;;5046159;28;20199;-69
2022/12/16 02:38:02;;;;;;;6.15;5.72;;;0.90;99.90;;;;;;5070787;28;20218;-71
2022/12/16 02:40:36;;;;;;;6.80;6.30;;;0.90;99.90;;;;;;5085245;28;20286;-68
2022/12/16 02:43:09;;;;;;;6.70;6.20;;;0.90;99.90;;;;;;5084961;28;20264;-68
2022/12/16 02:45:38;;;;;;;6.82;6.20;;;1.00;99.90;;;;;;5088443;28;20193;-69
2022/12/16 02:48:07;;;;;;;6.72;6.22;;;1.00;99.90;;;;;;5085802;28;20201;-69
2022/12/16 02:50:38;;;;;;;6.80;6.30;;;1.00;99.90;;;;;;5086950;28;20275;-69
2022/12/16 02:53:07;;;;;;;6.80;6.30;;;1.00;99.90;;;;;;5088109;28;20208;-70
2022/12/16 02:55:49;;;;;;;6.40;5.90;;;1.00;99.90;;;;;;5080151;28;20197;-69
2022/12/16 02:58:21;;;;;;;6.22;5.72;;;1.00;99.90;;;;;;5087124;28;20198;-69
2022/12/16 03:00:58;;;;;;;5.65;5.25;;;0.90;99.90;;;;;;5085838;28;20251;-68
2022/12/16 03:03:33;;;;;;;6.50;6.00;;;1.00;99.90;;;;;;5085603;28;20615;-71
2022/12/16 03:06:02;;;;;;;6.45;6.05;;;1.00;99.90;;;;;;5086193;28;20220;-68
2022/12/16 03:08:33;;;;;;;5.82;5.43;;;0.90;99.90;;;;;;5082446;28;20194;-68
2022/12/16 03:11:04;;;;;;;6.72;6.32;;;0.90;99.90;;;;;;5089138;28;20249;-70
2022/12/16 03:13:35;;;;;;;5.93;5.53;;;0.90;99.90;;;;;;5086307;28;20702;-68
2022/12/16 03:16:04;;;;;;;6.05;5.65;;;0.90;99.90;;;;;;5083349;28;20232;-69
2022/12/16 03:18:34;;;;;;;6.00;5.55;;;0.80;99.90;;;;;;5083155;28;20208;-68
2022/12/16 03:21:05;;;;;;;5.60;5.20;;;0.80;99.90;;;;;;5104534;22;20225;-71
2022/12/16 03:23:40;;;;;;;6.88;6.38;;;0.80;99.90;;;;;;5086374;28;20260;-72
2022/12/16 03:26:13;;;;;;;6.65;6.25;;;0.80;99.90;;;;;;5085417;28;20239;-71
2022/12/16 03:28:46;;;;;;;6.47;6.07;;;0.80;99.90;;;;;;5085523;28;20233;-71
2022/12/16 03:31:23;;;;;;;8.57;7.90;;;0.80;99.90;;;;;;5081626;28;20218;-71
2022/12/16 03:33:58;;;;;;;8.10;7.50;;;0.80;99.90;;;;;;5084188;28;20686;-72
2022/12/16 03:36:29;;;;;;;6.88;6.38;;;0.80;99.90;;;;;;5080250;28;20224;-71
2022/12/16 03:38:58;;;;;;;7.38;6.88;;;0.80;99.90;;;;;;5088650;28;20641;-72
2022/12/16 03:41:27;;;;;;;6.72;6.22;;;0.80;99.90;;;;;;5080699;28;20225;-71
2022/12/16 03:43:55;;;;;;;7.32;6.82;;;0.80;99.90;;;;;;5085994;28;21126;-72
2022/12/16 03:46:22;;;;;;;6.53;6.00;;;0.80;99.90;;;;;;5088851;28;20213;-72
2022/12/16 03:48:52;;;;;;;6.40;6.00;;;0.90;99.90;;;;;;5081809;28;20204;-72
2022/12/16 03:51:19;;;;;;;6.22;5.82;;;0.90;99.90;;;;;;5089996;28;20702;-74
2022/12/16 03:53:47;;;;;;;5.93;5.53;;;0.90;99.90;;;;;;5086831;28;20601;-72
2022/12/16 03:56:14;;;;;;;6.47;5.97;;;0.90;99.90;;;;;;5080142;28;20701;-74
2022/12/16 03:58:42;;;;;;;6.25;5.85;;;0.90;99.90;;;;;;5080935;28;20739;-74
2022/12/16 04:01:09;;;;;;;6.00;5.60;;;0.80;99.90;;;;;;5082730;28;20224;-74
2022/12/16 04:03:37;;;;;;;6.60;6.10;;;0.90;99.90;;;;;;5082577;28;20213;-74
2022/12/16 04:06:06;;;;;;;6.03;5.63;;;0.90;99.90;;;;;;5082006;28;20221;-74
2022/12/16 04:08:34;;;;;;;6.30;5.90;;;0.90;99.90;;;;;;5083471;28;20189;-73
2022/12/16 04:25:10;;;;;;;5.22;4.93;;;1.10;99.90;;;;;;5084779;28;20240;-73
2022/12/16 04:27:38;;;;;;;5.72;5.43;;;1.00;99.90;;;;;;5085324;28;20217;-74
2022/12/16 04:30:21;;;;;;;6.60;6.10;;;1.10;99.90;;;;;;5084514;28;20208;-74
